PWSweather.com
Personal Weather Stations
Station Observations
PWSLORIS
The Farm At Fox Bay, Loris, SC 29569

The Farm At Fox BayLoris, SC 29569

Lat: 34.067097, Lon: -78.86907

Elevation: 108

Station Type: Davis Vantage Pro2 with 24 hr. FARS and solar

http://www.lorisweather.com

Latest ConditionsUpdated 7:15:00 PM EST Sunday, Jan 22, 2017
Currently Today's Max Today's Min Today's Average
Temperature 60.2°F15.7°C 62.9°F17.2°C 59.2°F15.1°C 60.7°F15.9°C
Dew Point 59.3°F15.2°C 61.5°F16.4°C 58.3°F14.6°C 59.6°F15.3°C
Winds Calm Calm 5.8 mph SE9.3 kmh SE - 0.8 mph 1.3 kmh
Wind Gusts -- 11.5 mph18.5 kmh - -
Humidity 97% 99% 92% 96%
Pressure 29.45 in997.3 mb 29.72 in1006.4 mb 29.44 in997.0 mb -
Precipitation - 0.28 in7.1 mm - -
Hour Temp Dew Point Humidity Winds Wind Gusts Pressure Precip Precip Rate Daily Precip Total
07:15 PM 60.2°F15.7°C 59.3°F15.2°C 97% Calm Calm -- 29.45 in997.3 mb - 0.00 in0.0 mm 0.28 in7.1 mm
07:00 PM 60.3°F15.7°C 59.4°F15.2°C 97% Calm Calm -- 29.45 in997.3 mb - 0.00 in0.0 mm 0.28 in7.1 mm
06:45 PM 60.3°F15.7°C 59.2°F15.1°C 96% Calm Calm 4.6 mph7.4 kmh 29.44 in997.0 mb - 0.00 in0.0 mm 0.28 in7.1 mm
06:30 PM 60.4°F15.8°C 59.3°F15.2°C 96% Calm Calm -- 29.45 in997.3 mb - 0.00 in0.0 mm 0.28 in7.1 mm
06:15 PM 60.5°F15.8°C 59.4°F15.2°C 96% 1.2 mph ENE1.9 kmh ENE 3.5 mph5.6 kmh 29.44 in997.0 mb - 0.00 in0.0 mm 0.28 in7.1 mm
06:00 PM 60.6°F15.9°C 59.5°F15.3°C 96% 1.2 mph E1.9 kmh E 3.5 mph5.6 kmh 29.45 in997.3 mb - 0.00 in0.0 mm 0.28 in7.1 mm
05:45 PM 60.8°F16.0°C 59.3°F15.2°C 95% 3.5 mph E5.6 kmh E 4.6 mph7.4 kmh 29.47 in998.0 mb - 0.00 in0.0 mm 0.28 in7.1 mm
04:30 PM 61.5°F16.4°C 59.8°F15.4°C 94% Calm Calm -- 29.55 in1000.7 mb - 0.00 in0.0 mm 0.28 in7.1 mm
04:15 PM 61.7°F16.5°C 60.0°F15.6°C 94% Calm Calm -- 29.55 in1000.7 mb - 0.00 in0.0 mm 0.28 in7.1 mm
04:00 PM 61.9°F16.6°C 60.1°F15.6°C 94% Calm Calm -- 29.56 in1001.0 mb - 0.00 in0.0 mm 0.28 in7.1 mm
03:45 PM 62.2°F16.8°C 60.2°F15.7°C 93% 1.2 mph NW1.9 kmh NW 3.5 mph5.6 kmh 29.54 in1000.3 mb - 0.00 in0.0 mm 0.28 in7.1 mm
03:30 PM 62.3°F16.8°C 60.2°F15.7°C 93% Calm Calm -- 29.54 in1000.3 mb - 0.00 in0.0 mm 0.28 in7.1 mm
03:15 PM 62.3°F16.8°C 59.9°F15.5°C 92% 5.8 mph S9.3 kmh S 5.8 mph9.3 kmh 29.54 in1000.3 mb - 0.00 in0.0 mm 0.28 in7.1 mm
03:00 PM 62.4°F16.9°C 60.0°F15.6°C 92% 3.5 mph S5.6 kmh S 8.1 mph13.0 kmh 29.53 in1000.0 mb - 0.00 in0.0 mm 0.28 in7.1 mm
02:45 PM 62.5°F16.9°C 60.1°F15.6°C 92% 3.5 mph SSW5.6 kmh SSW 5.8 mph9.3 kmh 29.52 in999.7 mb - 0.00 in0.0 mm 0.28 in7.1 mm
02:30 PM 62.7°F17.1°C 60.3°F15.7°C 92% 5.8 mph S9.3 kmh S 10.4 mph16.7 kmh 29.51 in999.3 mb - 0.00 in0.0 mm 0.28 in7.1 mm
02:15 PM 62.9°F17.2°C 60.5°F15.8°C 92% 4.6 mph S7.4 kmh S 10.4 mph16.7 kmh 29.50 in999.0 mb - 0.00 in0.0 mm 0.28 in7.1 mm
02:00 PM 62.8°F17.1°C 60.7°F15.9°C 93% 2.3 mph SSE3.7 kmh SSE 5.8 mph9.3 kmh 29.50 in999.0 mb - 0.00 in0.0 mm 0.28 in7.1 mm
01:45 PM 62.8°F17.1°C 60.7°F15.9°C 93% 2.3 mph S3.7 kmh S 5.8 mph9.3 kmh 29.50 in999.0 mb - 0.00 in0.0 mm 0.28 in7.1 mm
01:30 PM 62.8°F17.1°C 61.4°F16.3°C 95% 1.2 mph SE1.9 kmh SE 3.5 mph5.6 kmh 29.51 in999.3 mb - 0.00 in0.0 mm 0.28 in7.1 mm
01:15 PM 62.9°F17.2°C 61.4°F16.3°C 95% Calm Calm -- 29.53 in1000.0 mb - 0.00 in0.0 mm 0.28 in7.1 mm
01:00 PM 62.8°F17.1°C 61.3°F16.3°C 95% 4.6 mph SE7.4 kmh SE 6.9 mph11.1 kmh 29.52 in999.7 mb - 0.00 in0.0 mm 0.28 in7.1 mm
12:45 PM 62.8°F17.1°C 61.3°F16.3°C 95% Calm Calm -- 29.56 in1001.0 mb - 0.00 in0.0 mm 0.28 in7.1 mm
12:30 PM 62.6°F17.0°C 61.1°F16.2°C 95% Calm Calm -- 29.56 in1001.0 mb - 0.00 in0.0 mm 0.28 in7.1 mm
12:15 PM 62.4°F16.9°C 61.5°F16.4°C 97% Calm Calm -- 29.56 in1001.0 mb - 0.00 in0.0 mm 0.28 in7.1 mm
12:00 PM 61.8°F16.6°C 60.9°F16.1°C 97% Calm Calm -- 29.56 in1001.0 mb - 0.00 in0.0 mm 0.28 in7.1 mm
11:45 AM 61.6°F16.4°C 61.1°F16.2°C 98% 5.8 mph SE9.3 kmh SE 11.5 mph18.5 kmh 29.54 in1000.3 mb - 0.00 in0.0 mm 0.28 in7.1 mm
11:30 AM 61.7°F16.5°C 61.1°F16.2°C 98% 1.2 mph SSW1.9 kmh SSW 4.6 mph7.4 kmh 29.62 in1003.0 mb - 0.00 in0.0 mm 0.28 in7.1 mm
11:15 AM 61.4°F16.3°C 60.8°F16.0°C 98% 3.5 mph S5.6 kmh S 5.8 mph9.3 kmh 29.61 in1002.7 mb - 0.00 in0.0 mm 0.28 in7.1 mm
11:00 AM 61.3°F16.3°C 60.7°F15.9°C 98% Calm Calm -- 29.61 in1002.7 mb - 0.00 in0.0 mm 0.28 in7.1 mm
10:45 AM 60.4°F15.8°C 60.1°F15.6°C 99% Calm Calm -- 29.61 in1002.7 mb - 0.00 in0.0 mm 0.28 in7.1 mm
10:30 AM 59.8°F15.4°C 59.2°F15.1°C 98% 3.5 mph SE5.6 kmh SE 9.2 mph14.8 kmh 29.55 in1000.7 mb - 0.00 in0.0 mm 0.28 in7.1 mm
10:15 AM 59.6°F15.3°C 59.1°F15.1°C 98% Calm Calm 1.2 mph1.9 kmh 29.61 in1002.7 mb - 0.00 in0.0 mm 0.28 in7.1 mm
10:00 AM 59.7°F15.4°C 59.1°F15.1°C 98% Calm Calm -- 29.64 in1003.7 mb - 0.01 in0.3 mm 0.28 in7.1 mm
09:45 AM 59.5°F15.3°C 59.0°F15.0°C 98% Calm Calm -- 29.66 in1004.4 mb - 0.01 in0.3 mm 0.27 in6.9 mm
09:30 AM 59.6°F15.3°C 59.0°F15.0°C 98% Calm Calm -- 29.69 in1005.4 mb - 0.02 in0.5 mm 0.26 in6.6 mm
09:15 AM 59.5°F15.3°C 58.9°F14.9°C 98% Calm Calm -- 29.69 in1005.4 mb - 0.05 in1.3 mm 0.25 in6.4 mm
09:00 AM 59.3°F15.2°C 58.7°F14.8°C 98% Calm Calm -- 29.68 in1005.1 mb - 0.04 in1.0 mm 0.20 in5.1 mm
08:45 AM 59.3°F15.2°C 58.7°F14.8°C 98% Calm Calm -- 29.70 in1005.8 mb - 0.03 in0.8 mm 0.16 in4.1 mm
08:30 AM 59.3°F15.2°C 58.7°F14.8°C 98% Calm Calm -- 29.71 in1006.1 mb - 0.02 in0.5 mm 0.13 in3.3 mm
08:15 AM 59.2°F15.1°C 58.6°F14.8°C 98% Calm Calm -- 29.67 in1004.7 mb - 0.01 in0.3 mm 0.11 in2.8 mm
08:00 AM 59.2°F15.1°C 58.6°F14.8°C 98% Calm Calm -- 29.71 in1006.1 mb - 0.01 in0.3 mm 0.10 in2.5 mm
07:45 AM 59.2°F15.1°C 58.3°F14.6°C 97% Calm Calm -- 29.68 in1005.1 mb - 0.01 in0.3 mm 0.09 in2.3 mm
07:30 AM 59.3°F15.2°C 58.4°F14.7°C 97% Calm Calm -- 29.69 in1005.4 mb - 0.03 in0.8 mm 0.08 in2.0 mm
07:15 AM 59.4°F15.2°C 58.5°F14.7°C 97% Calm Calm -- 29.71 in1006.1 mb - 0.04 in1.0 mm 0.06 in1.5 mm
07:00 AM 59.4°F15.2°C 58.6°F14.8°C 97% Calm Calm -- 29.72 in1006.4 mb - 0.02 in0.5 mm 0.02 in0.5 mm
06:45 AM 59.5°F15.3°C 58.7°F14.8°C 97% Calm Calm -- 29.71 in1006.1 mb - 0.00 in0.0 mm 0.00 in0.0 mm
06:30 AM 59.7°F15.4°C 58.6°F14.8°C 96% Calm Calm -- 29.70 in1005.8 mb - 0.00 in0.0 mm 0.00 in0.0 mm
06:15 AM 60.0°F15.6°C 58.9°F14.9°C 96% Calm Calm -- 29.69 in1005.4 mb - 0.00 in0.0 mm 0.00 in0.0 mm
06:00 AM 60.0°F15.6°C 58.9°F14.9°C 96% Calm Calm -- 29.69 in1005.4 mb - 0.00 in0.0 mm 0.00 in0.0 mm
05:45 AM 60.0°F15.6°C 58.9°F14.9°C 96% Calm Calm -- 29.68 in1005.1 mb - 0.00 in0.0 mm 0.00 in0.0 mm
05:30 AM 60.1°F15.6°C 58.7°F14.8°C 95% Calm Calm -- 29.68 in1005.1 mb - 0.00 in0.0 mm 0.00 in0.0 mm
05:15 AM 60.2°F15.7°C 58.8°F14.9°C 95% Calm Calm -- 29.68 in1005.1 mb - 0.00 in0.0 mm 0.00 in0.0 mm
05:00 AM 60.2°F15.7°C 58.8°F14.9°C 95% Calm Calm 2.3 mph3.7 kmh 29.68 in1005.1 mb - 0.00 in0.0 mm 0.00 in0.0 mm
04:45 AM 60.2°F15.7°C 58.8°F14.9°C 95% Calm Calm -- 29.68 in1005.1 mb - 0.00 in0.0 mm 0.00 in0.0 mm
04:30 AM 60.3°F15.7°C 58.9°F14.9°C 95% Calm Calm -- 29.67 in1004.7 mb - 0.00 in0.0 mm 0.00 in0.0 mm
04:15 AM 60.3°F15.7°C 58.9°F14.9°C 95% Calm Calm -- 29.66 in1004.4 mb - 0.00 in0.0 mm 0.00 in0.0 mm
04:00 AM 60.4°F15.8°C 59.0°F15.0°C 95% Calm Calm -- 29.65 in1004.1 mb - 0.00 in0.0 mm 0.00 in0.0 mm
03:45 AM 60.4°F15.8°C 59.3°F15.2°C 96% 2.3 mph W3.7 kmh W 5.8 mph9.3 kmh 29.66 in1004.4 mb - 0.00 in0.0 mm 0.00 in0.0 mm
03:30 AM 60.3°F15.7°C 59.2°F15.1°C 96% 1.2 mph W1.9 kmh W 4.6 mph7.4 kmh 29.66 in1004.4 mb - 0.00 in0.0 mm 0.00 in0.0 mm
03:15 AM 60.3°F15.7°C 59.1°F15.1°C 96% Calm Calm 1.2 mph1.9 kmh 29.68 in1005.1 mb - 0.00 in0.0 mm 0.00 in0.0 mm
03:00 AM 60.3°F15.7°C 59.4°F15.2°C 97% Calm Calm 1.2 mph1.9 kmh 29.69 in1005.4 mb - 0.00 in0.0 mm 0.00 in0.0 mm
02:45 AM 60.3°F15.7°C 59.4°F15.2°C 97% Calm Calm -- 29.68 in1005.1 mb - 0.00 in0.0 mm 0.00 in0.0 mm
02:30 AM 60.2°F15.7°C 59.3°F15.2°C 97% Calm Calm -- 29.69 in1005.4 mb - 0.00 in0.0 mm 0.00 in0.0 mm
02:15 AM 60.2°F15.7°C 59.3°F15.2°C 97% Calm Calm -- 29.68 in1005.1 mb - 0.00 in0.0 mm 0.00 in0.0 mm
02:00 AM 60.2°F15.7°C 59.3°F15.2°C 97% Calm Calm -- 29.67 in1004.7 mb - 0.00 in0.0 mm 0.00 in0.0 mm
01:45 AM 60.2°F15.7°C 59.3°F15.2°C 97% Calm Calm -- 29.66 in1004.4 mb - 0.00 in0.0 mm 0.00 in0.0 mm
01:30 AM 60.2°F15.7°C 59.3°F15.2°C 97% Calm Calm -- 29.67 in1004.7 mb - 0.00 in0.0 mm 0.00 in0.0 mm
01:15 AM 60.1°F15.6°C 59.6°F15.3°C 98% 1.2 mph SSW1.9 kmh SSW -- 29.67 in1004.7 mb - 0.00 in0.0 mm 0.00 in0.0 mm
01:00 AM 60.0°F15.6°C 59.4°F15.2°C 98% Calm Calm -- 29.68 in1005.1 mb - 0.00 in0.0 mm 0.00 in0.0 mm
12:45 AM 60.0°F15.6°C 59.4°F15.2°C 98% 1.2 mph WSW1.9 kmh WSW 2.3 mph3.7 kmh 29.68 in1005.1 mb - 0.00 in0.0 mm 0.00 in0.0 mm
12:30 AM 60.0°F15.6°C 59.4°F15.2°C 98% Calm Calm 3.5 mph5.6 kmh 29.68 in1005.1 mb - 0.00 in0.0 mm 0.00 in0.0 mm
12:15 AM 59.7°F15.4°C 58.9°F14.9°C 97% Calm Calm 2.3 mph3.7 kmh 29.68 in1005.1 mb - 0.00 in0.0 mm 0.00 in0.0 mm
12:00 AM 60.1°F15.6°C 59.2°F15.1°C 97% Calm Calm -- 29.68 in1005.1 mb - 0.00 in0.0 mm 0.00 in0.0 mm